Aérodrome :
LOGIN :

S'inscrire | Disclaimer

   EN    FR    IT 

 










Légende :    VFR   VFR Marginal   IFR   IFR Intensif   IFR Très Intensif
Visi : 
Plafond : 
>= 8 km
>= 3000ft
5 à 8 km
1000 à 3000 ft
1500m à 5 km
500 à 1000 ft
800 à 1500m
200 à 500 ft
< 800m
< 200 ft
Symboles :   Orages  Brouillard  Fortes neiges  Fortes précipitations  Vent > 20 kt
SIGMETs :   Divers  Orages  Givrage  Turbulence  Onde Orograph.  Cendres Volcan.






- Altitude de l'aérodrome : 17 ft
- Code IATA : GRS


LIRS - Grosseto

DERNIER METAR :
  • 111855Z 07004KT CAVOK 13/11 Q1007

METARs EXPIRÉS :
  • 111755Z 05002KT CAVOK 13/11 Q1007
  • 111655Z 06006KT 9999 FEW020 SCT040 13/11 Q1007 RMK OVC BKN180 VIS MIN 9999 WIND THR03 07006KT WIND THR21 09003KT BLU

TAF COR TAF LIRS
Valide du 11 à 18h jusqu'au 12 à 03h UTC


111706Z 1118/1203 04010KT 9999 SCT025 SCT045
TEMPO 1200/1203 5000 RA BR



MET'MAP, la Météo Aéronautique d'un coup d'oeil ! - Copyright ORBIFLY Décembre 2007 - Disclaimer

ORBIFLY MET'MAP TEAM :

Programmation & Développement : Alexandra Zaïnal
Conception & Développement : Baudouin d'Aumeries
Co-Programmation & Développement : Marc-Olivier Méhu
Soutien technique & logistique : Manuel Goepfert

Contact : metmap@orbifly.com




SOURCES & CREDITS :

   NOAA